Time;durP1;ratioP1;P1;durP2;ratioP2;P2;SDS_P1;SDS_P2;PMS_P1;PMS_P2;Temp;Humidity;BMP_temperature;BMP_pressure;BME280_temperature;BME280_humidity;BME280_pressure;Samples;Min_cycle;Max_cycle;Signal;HPM_P1;HPM_P2
2022/07/29 00:02:13;;;;;;;7.55;3.63;;;16.80;99.90;;;;;;4979692;28;20069;-86
2022/07/29 00:04:45;;;;;;;4.95;3.35;;;16.70;99.90;;;;;;4995783;28;20050;-85
2022/07/29 00:07:10;;;;;;;7.60;3.20;;;16.60;99.90;;;;;;4979064;28;20069;-86
2022/07/29 00:09:36;;;;;;;6.85;3.53;;;16.50;99.90;;;;;;4978865;28;20030;-86
2022/07/29 00:12:02;;;;;;;7.30;3.55;;;16.50;99.90;;;;;;4997425;28;20530;-86
2022/07/29 00:14:28;;;;;;;9.40;3.65;;;16.40;99.90;;;;;;4996396;28;20034;-86
2022/07/29 00:17:01;;;;;;;6.72;3.72;;;16.30;99.90;;;;;;4980081;28;20483;-87
2022/07/29 00:19:27;;;;;;;4.90;3.42;;;16.20;99.90;;;;;;4980182;28;20045;-86
2022/07/29 00:21:53;;;;;;;8.55;3.67;;;16.20;99.90;;;;;;4979631;28;20038;-86
2022/07/29 00:24:18;;;;;;;9.38;4.13;;;16.00;99.90;;;;;;4977685;28;20042;-86
2022/07/29 00:26:44;;;;;;;6.53;3.80;;;16.00;99.90;;;;;;4993407;28;20114;-86
2022/07/29 00:29:10;;;;;;;9.18;3.97;;;15.90;99.90;;;;;;4975844;28;20030;-86
2022/07/29 00:31:43;;;;;;;9.27;4.15;;;15.90;99.90;;;;;;4992446;28;20034;-86
2022/07/29 00:35:43;;;;;;;9.73;3.97;;;15.90;99.90;;;;;;4991631;28;20030;-86
2022/07/29 00:37:01;;;;;;;6.10;3.83;;;15.90;99.90;;;;;;4991660;28;20034;-87
2022/07/29 00:39:27;;;;;;;6.25;4.05;;;16.00;99.90;;;;;;4992244;28;20041;-86
2022/07/29 00:41:53;;;;;;;6.80;4.18;;;16.00;99.90;;;;;;4992507;28;20034;-86
2022/07/29 00:44:19;;;;;;;5.60;4.00;;;16.00;99.90;;;;;;4992672;28;20034;-86
2022/07/29 00:46:45;;;;;;;7.30;4.05;;;16.00;99.90;;;;;;4993115;28;20041;-87
2022/07/29 00:49:16;;;;;;;6.65;4.13;;;16.00;99.90;;;;;;4992779;28;20034;-86
2022/07/29 00:51:42;;;;;;;12.07;4.35;;;15.90;99.90;;;;;;4993461;28;20152;-86
2022/07/29 00:54:08;;;;;;;10.40;4.40;;;15.90;99.90;;;;;;4976600;28;20086;-87
2022/07/29 00:56:34;;;;;;;10.50;4.32;;;15.90;99.90;;;;;;5007884;28;20046;-86
2022/07/29 00:59:00;;;;;;;8.15;4.30;;;15.90;99.90;;;;;;4992640;28;20035;-86
2022/07/29 01:01:33;;;;;;;7.93;4.18;;;15.90;99.90;;;;;;4976609;28;20125;-87
2022/07/29 01:03:59;;;;;;;9.07;4.18;;;15.80;99.90;;;;;;4992363;28;20062;-86
2022/07/29 01:06:26;;;;;;;10.10;4.30;;;15.70;99.90;;;;;;4992341;28;20479;-87
2022/07/29 01:08:52;;;;;;;7.78;4.57;;;15.60;99.90;;;;;;4979862;28;20384;-86
2022/07/29 01:11:18;;;;;;;5.97;4.50;;;15.50;99.90;;;;;;4997683;28;20037;-85
2022/07/29 01:13:53;;;;;;;11.38;4.97;;;15.30;99.90;;;;;;4993112;28;20035;-86
2022/07/29 01:16:49;;;;;;;15.07;4.97;;;15.30;99.90;;;;;;4977691;28;20081;-86
2022/07/29 01:19:32;;;;;;;12.68;4.47;;;15.30;99.90;;;;;;4977459;28;20117;-86
2022/07/29 01:22:25;;;;;;;6.15;4.10;;;15.20;99.90;;;;;;4980834;28;20471;-85
2022/07/29 01:25:16;;;;;;;7.03;5.13;;;15.20;99.90;;;;;;4976682;28;20474;-86
2022/07/29 01:28:08;;;;;;;7.45;4.85;;;15.30;99.90;;;;;;4996395;28;20403;-86
2022/07/29 01:30:37;;;;;;;8.80;5.22;;;15.30;99.90;;;;;;4979128;28;20045;-86
2022/07/29 01:33:48;;;;;;;10.45;5.18;;;15.40;99.90;;;;;;4979399;28;20403;-86
2022/07/29 01:36:10;;;;;;;7.68;4.93;;;15.40;99.90;;;;;;4997126;28;20041;-86
2022/07/29 01:38:39;;;;;;;10.02;5.40;;;15.40;99.90;;;;;;4979342;28;20038;-86
2022/07/29 01:41:16;;;;;;;8.82;4.80;;;15.50;99.90;;;;;;4996865;28;20116;-86
2022/07/29 01:43:53;;;;;;;9.00;5.18;;;15.50;99.90;;;;;;4994881;28;20038;-86
2022/07/29 01:46:56;;;;;;;8.10;5.30;;;15.50;99.90;;;;;;4995351;28;20041;-86
2022/07/29 01:49:26;;;;;;;9.70;4.97;;;15.50;99.90;;;;;;4979109;28;20077;-86
2022/07/29 01:52:14;;;;;;;12.87;5.73;;;15.40;99.90;;;;;;4979102;28;20088;-87
2022/07/29 01:54:45;;;;;;;7.80;5.05;;;15.40;99.90;;;;;;4978449;28;20277;-87
2022/07/29 01:57:17;;;;;;;8.45;5.55;;;15.30;99.90;;;;;;4995399;28;20042;-87
2022/07/29 01:59:45;;;;;;;9.13;5.18;;;15.40;99.90;;;;;;4978357;28;20173;-87
2022/07/29 02:02:13;;;;;;;12.30;5.30;;;15.40;99.90;;;;;;4994690;28;20081;-87
2022/07/29 02:04:40;;;;;;;8.75;5.78;;;15.50;99.90;;;;;;4995252;28;20031;-87
2022/07/29 02:07:19;;;;;;;9.57;5.63;;;15.60;99.90;;;;;;4979536;28;20085;-87
2022/07/29 02:09:47;;;;;;;12.38;5.97;;;15.60;99.90;;;;;;4996959;28;20081;-87
2022/07/29 02:12:16;;;;;;;9.52;5.60;;;15.50;99.90;;;;;;4978659;28;20806;-88
2022/07/29 02:14:52;;;;;;;11.80;6.70;;;15.60;99.90;;;;;;4978834;28;20376;-87
2022/07/29 02:17:24;;;;;;;9.50;5.55;;;15.60;99.90;;;;;;4994979;28;20558;-87
2022/07/29 02:19:54;;;;;;;8.32;5.40;;;15.60;99.90;;;;;;4995179;28;20118;-87
2022/07/29 02:22:30;;;;;;;7.95;5.43;;;15.60;99.90;;;;;;4979194;28;20042;-88
2022/07/29 02:24:58;;;;;;;9.77;5.05;;;15.60;99.90;;;;;;4978445;28;20407;-87
2022/07/29 02:27:26;;;;;;;8.85;5.28;;;15.60;99.90;;;;;;4996044;28;20031;-87
2022/07/29 02:29:53;;;;;;;14.73;5.50;;;15.60;99.90;;;;;;4995292;28;20535;-88
2022/07/29 02:32:27;;;;;;;9.15;5.53;;;15.60;99.90;;;;;;4994680;28;20038;-87
2022/07/29 02:34:54;;;;;;;11.40;6.35;;;15.60;99.90;;;;;;4995252;28;20073;-86
2022/07/29 02:37:21;;;;;;;14.23;6.30;;;15.70;99.90;;;;;;4977815;28;20034;-87
2022/07/29 02:39:48;;;;;;;12.93;6.07;;;15.70;99.90;;;;;;4995419;28;20061;-87
2022/07/29 02:42:23;;;;;;;10.82;6.03;;;15.70;99.90;;;;;;4995757;28;20038;-87
2022/07/29 02:44:50;;;;;;;9.02;6.05;;;15.90;99.90;;;;;;4993549;28;20034;-87
2022/07/29 02:47:21;;;;;;;10.73;6.47;;;15.90;99.90;;;;;;4993138;28;20034;-87
2022/07/29 02:50:08;;;;;;;9.50;6.38;;;16.00;99.90;;;;;;4994442;28;20034;-87
2022/07/29 02:52:43;;;;;;;8.07;6.57;;;16.00;99.90;;;;;;4993829;28;20052;-88
2022/07/29 02:55:18;;;;;;;13.73;6.88;;;16.10;99.90;;;;;;4994092;28;20030;-86
2022/07/29 02:57:54;;;;;;;7.63;6.38;;;16.10;99.90;;;;;;4994007;28;20044;-87
2022/07/29 03:00:23;;;;;;;10.43;6.80;;;16.10;99.90;;;;;;4978167;28;20045;-87
2022/07/29 03:02:53;;;;;;;8.75;5.75;;;16.00;99.90;;;;;;4978025;28;20738;-87
2022/07/29 03:05:20;;;;;;;9.05;6.15;;;16.00;99.90;;;;;;4994678;28;20034;-87
2022/07/29 03:07:50;;;;;;;9.57;5.93;;;15.90;99.90;;;;;;4978179;28;20034;-87
2022/07/29 03:10:17;;;;;;;7.25;5.95;;;15.90;99.90;;;;;;4994159;28;20026;-87
2022/07/29 03:12:51;;;;;;;8.48;6.13;;;15.80;99.90;;;;;;4977792;28;20065;-88
2022/07/29 03:15:18;;;;;;;12.25;6.85;;;15.70;99.90;;;;;;4977576;28;20027;-87
2022/07/29 03:17:44;;;;;;;8.90;6.07;;;15.50;99.90;;;;;;4978868;28;20049;-89
2022/07/29 03:20:11;;;;;;;8.73;6.50;;;15.40;99.90;;;;;;4979065;28;20038;-87
2022/07/29 03:22:47;;;;;;;12.10;6.55;;;15.40;99.90;;;;;;4995166;28;20120;-87
2022/07/29 03:25:14;;;;;;;7.68;5.95;;;15.30;99.90;;;;;;4994383;28;20041;-87
2022/07/29 03:27:40;;;;;;;7.82;6.10;;;15.40;99.90;;;;;;4984280;28;20030;-86
2022/07/29 03:30:08;;;;;;;11.15;5.50;;;15.40;99.90;;;;;;4992920;28;20041;-87
2022/07/29 03:32:34;;;;;;;7.88;5.38;;;15.60;99.90;;;;;;4993459;28;20117;-87
2022/07/29 03:35:06;;;;;;;12.60;5.85;;;15.70;99.90;;;;;;4976528;28;20042;-87
2022/07/29 03:37:33;;;;;;;6.78;4.85;;;15.80;99.90;;;;;;4977582;28;20434;-87
2022/07/29 03:40:01;;;;;;;8.85;4.85;;;15.90;99.90;;;;;;4977375;28;20042;-87
2022/07/29 03:42:33;;;;;;;14.20;5.20;;;16.00;99.90;;;;;;4994331;28;20042;-87
2022/07/29 03:45:07;;;;;;;10.85;5.35;;;16.10;99.90;;;;;;4992720;28;20126;-87
2022/07/29 03:47:35;;;;;;;8.25;4.70;;;16.20;99.90;;;;;;4993327;28;20553;-87
2022/07/29 03:50:05;;;;;;;8.65;5.00;;;16.20;99.90;;;;;;4978007;28;20041;-87
2022/07/29 03:52:31;;;;;;;9.80;4.97;;;16.30;99.90;;;;;;4985270;28;20042;-87
2022/07/29 03:55:05;;;;;;;9.38;5.13;;;16.30;99.90;;;;;;4984404;28;20030;-86
2022/07/29 03:57:31;;;;;;;9.57;4.43;;;16.40;99.90;;;;;;4979845;28;20500;-87
2022/07/29 03:59:58;;;;;;;8.85;4.95;;;16.40;99.90;;;;;;4958586;28;20488;-87
2022/07/29 04:02:25;;;;;;;11.35;4.90;;;16.40;99.90;;;;;;4974364;28;20045;-90
2022/07/29 04:05:00;;;;;;;11.82;4.82;;;16.50;99.90;;;;;;4976066;28;20042;-87
2022/07/29 04:07:26;;;;;;;9.77;5.40;;;16.60;99.90;;;;;;4975515;28;20097;-87
2022/07/29 04:09:52;;;;;;;6.15;4.63;;;16.70;99.90;;;;;;4957911;28;20039;-87
2022/07/29 04:12:17;;;;;;;9.02;5.00;;;16.80;99.90;;;;;;4974931;28;20058;-87
2022/07/29 04:14:43;;;;;;;6.10;4.63;;;16.80;99.90;;;;;;4973188;28;20038;-87
2022/07/29 04:17:09;;;;;;;6.53;4.65;;;16.90;99.90;;;;;;4962228;28;20010;-89
2022/07/29 04:19:39;;;;;;;8.43;4.22;;;17.00;99.90;;;;;;4984294;28;20038;-87
2022/07/29 04:22:04;;;;;;;10.30;4.40;;;17.00;99.90;;;;;;4961241;28;20163;-88
2022/07/29 04:24:30;;;;;;;9.50;4.78;;;17.10;99.90;;;;;;4975258;28;20063;-87
2022/07/29 04:26:56;;;;;;;13.00;5.57;;;17.10;99.90;;;;;;4973827;28;20476;-88
2022/07/29 04:29:22;;;;;;;12.48;4.80;;;17.20;99.90;;;;;;4956350;28;20023;-87
2022/07/29 04:31:56;;;;;;;6.60;4.28;;;17.20;99.90;;;;;;4956806;28;20023;-87
2022/07/29 04:34:22;;;;;;;7.43;4.70;;;17.30;99.90;;;;;;4955747;28;20027;-87
2022/07/29 04:36:48;;;;;;;11.52;5.05;;;17.40;99.90;;;;;;4972104;28;20031;-87
2022/07/29 04:39:14;;;;;;;6.28;3.85;;;17.40;99.90;;;;;;4955522;28;20034;-88
2022/07/29 04:41:40;;;;;;;5.47;4.03;;;17.40;99.90;;;;;;4956212;28;20031;-87
2022/07/29 04:44:06;;;;;;;9.20;4.78;;;17.50;99.90;;;;;;4954740;28;20031;-88
2022/07/29 04:46:35;;;;;;;6.78;4.10;;;17.60;99.90;;;;;;4955798;28;20023;-88
2022/07/29 04:49:02;;;;;;;7.50;4.97;;;17.70;99.90;;;;;;4956192;28;20070;-88
2022/07/29 04:51:28;;;;;;;9.00;4.57;;;17.80;99.90;;;;;;4954911;28;20034;-88
2022/07/29 04:53:54;;;;;;;8.23;4.70;;;17.80;99.90;;;;;;4970936;28;20038;-87
2022/07/29 04:56:19;;;;;;;7.25;4.25;;;17.80;99.90;;;;;;4974832;28;20045;-87
2022/07/29 04:58:53;;;;;;;8.75;4.25;;;17.90;99.90;;;;;;4975556;28;20039;-87
2022/07/29 05:01:19;;;;;;;15.55;4.60;;;17.90;99.90;;;;;;4959545;28;20035;-88
2022/07/29 05:03:45;;;;;;;7.18;4.45;;;18.00;99.90;;;;;;4957746;28;20038;-88
2022/07/29 05:06:11;;;;;;;9.85;4.63;;;18.00;99.90;;;;;;4958889;28;20033;-87
2022/07/29 05:08:37;;;;;;;8.02;4.65;;;17.90;99.90;;;;;;4984058;28;20073;-88
2022/07/29 05:11:11;;;;;;;7.70;4.40;;;17.90;99.90;;;;;;4996333;28;20030;-88
2022/07/29 05:13:37;;;;;;;9.13;4.82;;;17.80;99.90;;;;;;4957902;28;20046;-88
2022/07/29 05:16:03;;;;;;;5.68;4.45;;;17.80;99.90;;;;;;4958723;28;20043;-88
2022/07/29 05:18:29;;;;;;;8.50;4.60;;;17.70;99.90;;;;;;4975171;28;20544;-87
2022/07/29 05:20:55;;;;;;;6.80;4.50;;;17.80;99.90;;;;;;4974904;28;20027;-87
2022/07/29 05:23:21;;;;;;;7.88;4.97;;;17.80;99.90;;;;;;4958299;28;20038;-87
2022/07/29 05:25:51;;;;;;;8.07;4.22;;;17.80;99.90;;;;;;4958672;28;20094;-88
2022/07/29 05:28:17;;;;;;;7.22;4.25;;;18.00;99.90;;;;;;4972349;28;20042;-88
2022/07/29 05:30:44;;;;;;;8.98;4.15;;;18.00;99.90;;;;;;4981964;28;20041;-88
2022/07/29 05:33:10;;;;;;;10.20;4.10;;;18.10;99.90;;;;;;4982095;28;20039;-88
2022/07/29 05:35:36;;;;;;;11.65;4.13;;;18.20;99.90;;;;;;4966650;28;20125;-88
2022/07/29 05:38:10;;;;;;;8.25;4.07;;;18.20;99.90;;;;;;4989002;28;20103;-88
2022/07/29 05:40:36;;;;;;;12.48;5.15;;;18.40;99.90;;;;;;4984442;28;20033;-88
2022/07/29 05:43:01;;;;;;;7.90;4.10;;;18.40;99.90;;;;;;4992798;28;20034;-89
2022/07/29 05:45:27;;;;;;;6.63;4.78;;;18.40;99.90;;;;;;4974608;28;20027;-88
2022/07/29 05:47:53;;;;;;;5.88;4.15;;;18.40;99.90;;;;;;4987620;28;20133;-88
2022/07/29 05:50:19;;;;;;;11.10;4.68;;;18.40;99.90;;;;;;4971605;28;20035;-88
2022/07/29 05:52:54;;;;;;;7.97;4.10;;;18.40;99.90;;;;;;4980967;28;20030;-85
2022/07/29 05:55:19;;;;;;;8.55;4.53;;;18.30;99.90;;;;;;4990377;28;20466;-88
2022/07/29 05:57:45;;;;;;;11.23;4.30;;;18.40;99.90;;;;;;4980705;28;20034;-88
2022/07/29 06:00:41;;;;;;;;;;;;;;;;;;;;;
2022/07/29 06:03:10;;;;;;;6.60;4.75;;;18.70;99.90;;;;;;4983797;28;20046;-89
2022/07/29 06:05:45;;;;;;;8.43;4.80;;;18.90;99.90;;;;;;5004993;28;20069;-87
2022/07/29 06:08:19;;;;;;;8.95;4.70;;;19.10;99.90;;;;;;4970409;28;20510;-88
2022/07/29 06:10:46;;;;;;;6.95;4.43;;;19.20;99.90;;;;;;4990971;28;20037;-89
2022/07/29 06:13:19;;;;;;;8.05;4.63;;;19.30;99.90;;;;;;4988224;28;20027;-88
2022/07/29 06:15:45;;;;;;;7.45;4.30;;;19.40;99.90;;;;;;4975993;28;20500;-86
2022/07/29 06:18:13;;;;;;;9.60;4.47;;;19.60;99.90;;;;;;4994173;28;20054;-91
2022/07/29 06:20:38;;;;;;;8.07;4.95;;;19.70;99.90;;;;;;5005150;28;20034;-89
2022/07/29 06:23:04;;;;;;;5.72;4.53;;;19.80;99.90;;;;;;5008427;28;20094;-89
2022/07/29 06:25:40;;;;;;;11.55;4.40;;;20.00;99.90;;;;;;4997700;28;20026;-90
2022/07/29 06:28:06;;;;;;;9.35;4.97;;;20.20;99.90;;;;;;5004547;28;20023;-90
2022/07/29 06:30:32;;;;;;;11.40;5.30;;;20.30;99.90;;;;;;5008014;28;20017;-88
2022/07/29 06:32:58;;;;;;;13.70;5.93;;;20.20;99.90;;;;;;5011482;28;20010;-88
2022/07/29 06:35:24;;;;;;;6.05;4.18;;;20.20;99.90;;;;;;5022837;28;20018;-90
2022/07/29 06:37:57;;;;;;;9.68;5.20;;;20.10;99.90;;;;;;5005575;28;20033;-90
2022/07/29 06:43:10;;;;;;;8.95;4.97;;;20.20;99.90;;;;;;5009161;28;20038;-90
2022/07/29 06:45:36;;;;;;;11.30;4.70;;;20.20;99.90;;;;;;5006139;28;20011;-90
2022/07/29 06:48:02;;;;;;;7.03;4.35;;;20.20;99.90;;;;;;4995922;28;20046;-90
2022/07/29 06:50:28;;;;;;;6.53;4.05;;;20.30;99.90;;;;;;5022853;28;20042;-90
2022/07/29 06:52:53;;;;;;;7.40;4.20;;;20.50;99.90;;;;;;5013098;28;20049;-87
2022/07/29 06:55:19;;;;;;;11.95;4.65;;;20.60;99.90;;;;;;5011462;28;20034;-88
2022/07/29 06:57:52;;;;;;;5.93;4.55;;;20.60;99.90;;;;;;4995144;28;20011;-88
2022/07/29 07:00:18;;;;;;;6.15;4.10;;;20.60;99.90;;;;;;5008496;28;20018;-87
2022/07/29 07:02:44;;;;;;;10.07;4.70;;;20.70;99.90;;;;;;5007359;28;20342;-88
2022/07/29 07:05:09;;;;;;;8.80;5.13;;;20.80;99.90;;;;;;5010398;23;20072;-89
2022/07/29 07:07:35;;;;;;;8.43;4.40;;;21.10;99.90;;;;;;5012549;28;20073;-87
2022/07/29 07:10:01;;;;;;;9.40;4.80;;;21.70;99.90;;;;;;4996789;28;20096;-89
2022/07/29 07:12:27;;;;;;;10.13;4.65;;;21.80;99.90;;;;;;4997197;28;20394;-86
2022/07/29 07:14:52;;;;;;;7.85;4.85;;;21.80;99.90;;;;;;5012614;28;20099;-89
2022/07/29 07:17:18;;;;;;;8.32;4.25;;;21.70;99.90;;;;;;4996227;28;20091;-89
2022/07/29 07:19:44;;;;;;;11.63;4.72;;;21.60;99.90;;;;;;4996848;28;20033;-89
2022/07/29 07:22:10;;;;;;;5.45;4.40;;;21.50;99.90;;;;;;5012774;28;20042;-89
2022/07/29 07:24:36;;;;;;;7.82;4.65;;;21.80;99.90;;;;;;5012528;28;20041;-89
2022/07/29 07:27:02;;;;;;;12.02;4.10;;;21.90;99.90;;;;;;4996387;28;20131;-89
2022/07/29 07:29:27;;;;;;;9.65;4.28;;;22.20;99.90;;;;;;5013150;28;20029;-89
2022/07/29 07:31:54;;;;;;;8.38;4.68;;;22.70;99.90;;;;;;4996479;28;20384;-89
2022/07/29 07:34:19;;;;;;;7.97;4.68;;;22.80;99.90;;;;;;5012487;28;20046;-90
2022/07/29 07:36:45;;;;;;;9.35;5.35;;;23.10;99.90;;;;;;4996304;28;20119;-89
2022/07/29 07:39:11;;;;;;;7.57;4.07;;;23.00;99.90;;;;;;5014067;28;20482;-88
2022/07/29 07:41:36;;;;;;;10.60;4.88;;;22.70;99.90;;;;;;4996400;28;20028;-90
2022/07/29 07:44:02;;;;;;;10.07;4.65;;;22.50;99.90;;;;;;5012227;28;20042;-89
2022/07/29 07:46:28;;;;;;;6.93;4.72;;;22.30;99.90;;;;;;5013764;28;20527;-89
2022/07/29 07:48:54;;;;;;;16.65;4.57;;;22.10;99.90;;;;;;4995704;28;20034;-89
2022/07/29 07:51:19;;;;;;;7.45;4.10;;;22.10;99.90;;;;;;5013959;28;20065;-90
2022/07/29 07:53:51;;;;;;;5.55;4.03;;;22.50;99.90;;;;;;4996228;28;20465;-87
2022/07/29 07:56:17;;;;;;;9.60;4.82;;;22.80;99.90;;;;;;5012543;28;20029;-87
2022/07/29 07:58:43;;;;;;;7.00;4.68;;;22.80;99.90;;;;;;5012291;28;20547;-87
2022/07/29 08:01:09;;;;;;;8.10;4.43;;;22.50;99.90;;;;;;4996044;28;20062;-86
2022/07/29 08:03:35;;;;;;;6.28;4.60;;;22.10;99.90;;;;;;5013323;28;20034;-88
2022/07/29 08:06:02;;;;;;;6.65;4.35;;;21.70;99.90;;;;;;4996160;28;20030;-89
2022/07/29 08:08:28;;;;;;;8.35;4.55;;;21.90;99.90;;;;;;5012053;28;20037;-87
2022/07/29 08:10:56;;;;;;;9.93;4.88;;;22.80;99.90;;;;;;4995710;28;20437;-87
2022/07/29 08:13:27;;;;;;;6.35;4.10;;;24.80;99.90;;;;;;4995400;28;20095;-87
2022/07/29 08:16:11;;;;;;;7.00;4.20;;;26.70;99.90;;;;;;5013410;28;20488;-87
2022/07/29 08:18:38;;;;;;;8.10;4.10;;;27.90;99.90;;;;;;4996565;28;20759;-86
2022/07/29 08:21:04;;;;;;;4.70;3.90;;;28.40;99.90;;;;;;5011950;28;20041;-87
2022/07/29 08:23:39;;;;;;;7.25;3.88;;;29.20;99.90;;;;;;4995329;28;20180;-87
2022/07/29 08:26:11;;;;;;;7.70;4.88;;;29.10;99.90;;;;;;5012059;28;20095;-87
2022/07/29 08:28:39;;;;;;;4.93;3.75;;;27.80;99.90;;;;;;5012354;28;20048;-87
2022/07/29 08:31:05;;;;;;;7.43;4.00;;;26.90;99.90;;;;;;5000034;28;20029;-86
2022/07/29 08:33:31;;;;;;;11.27;3.88;;;25.90;99.90;;;;;;5000010;28;20432;-87
2022/07/29 08:35:57;;;;;;;6.15;3.92;;;25.60;99.90;;;;;;4999902;28;20041;-86
2022/07/29 08:38:22;;;;;;;5.47;3.63;;;26.20;99.90;;;;;;5015922;28;20574;-87
2022/07/29 08:40:49;;;;;;;8.55;4.78;;;27.90;99.90;;;;;;4999911;28;20040;-87
2022/07/29 08:43:14;;;;;;;11.85;4.38;;;28.40;99.90;;;;;;5016295;28;20030;-87
2022/07/29 08:45:50;;;;;;;8.43;4.35;;;28.70;99.90;;;;;;4999427;28;20034;-87
2022/07/29 08:48:23;;;;;;;7.65;3.97;;;29.50;99.90;;;;;;4999554;28;20073;-89
2022/07/29 08:50:52;;;;;;;5.35;3.72;;;29.60;99.90;;;;;;5000016;28;20072;-88
2022/07/29 08:53:18;;;;;;;4.97;3.40;;;30.30;99.90;;;;;;5015541;28;20033;-88
2022/07/29 08:55:49;;;;;;;4.45;3.55;;;30.60;99.10;;;;;;5016720;28;20030;-89
2022/07/29 08:58:16;;;;;;;7.82;4.00;;;30.20;98.80;;;;;;5016247;28;20117;-89
2022/07/29 09:00:45;;;;;;;11.40;4.28;;;30.00;98.70;;;;;;5017050;28;20030;-89
2022/07/29 09:03:14;;;;;;;4.63;3.45;;;29.60;98.90;;;;;;4999467;28;20042;-87
2022/07/29 09:06:02;;;;;;;5.43;3.92;;;29.30;99.40;;;;;;5000051;28;20069;-88
2022/07/29 09:08:28;;;;;;;6.90;4.43;;;29.00;98.90;;;;;;4998981;28;20080;-89
2022/07/29 09:10:58;;;;;;;4.57;4.00;;;28.30;99.90;;;;;;5016092;28;20032;-88
2022/07/29 09:13:24;;;;;;;10.63;4.60;;;27.10;99.90;;;;;;5014621;28;20034;-88
2022/07/29 09:15:50;;;;;;;4.82;3.95;;;27.10;99.90;;;;;;4999189;28;20025;-88
2022/07/29 09:18:41;;;;;;;7.88;4.13;;;27.30;99.90;;;;;;5015665;28;20030;-87
2022/07/29 09:24:03;;;;;;;5.25;4.40;;;28.70;99.90;;;;;;5016504;28;20092;-88
2022/07/29 09:26:34;;;;;;;6.95;4.35;;;28.50;99.80;;;;;;4999201;28;20450;-88
2022/07/29 09:29:00;;;;;;;9.63;4.53;;;28.30;99.90;;;;;;4999501;28;20119;-88
2022/07/29 09:31:37;;;;;;;13.43;5.18;;;28.00;99.90;;;;;;5015096;28;20061;-87
2022/07/29 09:34:04;;;;;;;8.30;4.20;;;28.70;99.90;;;;;;4999260;28;20034;-89
2022/07/29 09:37:01;;;;;;;8.30;4.25;;;29.90;97.90;;;;;;4998810;28;20034;-88
2022/07/29 09:39:36;;;;;;;7.05;3.97;;;30.80;96.20;;;;;;5012891;28;20037;-88
2022/07/29 09:42:05;;;;;;;6.13;3.72;;;31.50;95.10;;;;;;4998673;28;20042;-88
2022/07/29 09:44:51;;;;;;;7.35;4.13;;;32.00;93.80;;;;;;5014464;28;20076;-89
2022/07/29 09:47:18;;;;;;;4.82;3.95;;;32.40;92.60;;;;;;5014250;28;20095;-88
2022/07/29 09:49:59;;;;;;;6.00;4.40;;;32.90;92.10;;;;;;4998113;28;20030;-88
2022/07/29 09:52:48;;;;;;;6.93;4.63;;;32.50;91.20;;;;;;4997713;28;20037;-89
2022/07/29 09:55:14;;;;;;;6.45;4.43;;;31.50;91.00;;;;;;4997897;28;20080;-88
2022/07/29 09:57:40;;;;;;;6.80;4.57;;;30.80;91.80;;;;;;5015912;28;20030;-88
2022/07/29 10:00:28;;;;;;;6.68;4.18;;;29.60;92.60;;;;;;4997915;28;20124;-88
2022/07/29 10:03:01;;;;;;;6.07;4.82;;;29.10;93.50;;;;;;4997666;28;20038;-89
2022/07/29 10:05:30;;;;;;;7.53;4.30;;;29.00;93.80;;;;;;4997424;28;20164;-89
2022/07/29 10:07:57;;;;;;;10.60;4.75;;;28.90;94.00;;;;;;5014166;28;20080;-88
2022/07/29 10:10:31;;;;;;;6.70;4.15;;;29.20;93.30;;;;;;5014584;28;20087;-89
2022/07/29 10:13:02;;;;;;;8.45;4.28;;;29.80;93.10;;;;;;5015199;28;20062;-89
2022/07/29 10:15:38;;;;;;;10.35;4.15;;;30.20;92.30;;;;;;4998509;28;20030;-89
2022/07/29 10:18:04;;;;;;;5.47;3.85;;;29.90;93.20;;;;;;4998748;28;20050;-89
2022/07/29 10:21:01;;;;;;;7.13;4.00;;;30.60;92.20;;;;;;5014987;28;20026;-88
2022/07/29 10:26:49;;;;;;;6.10;5.03;;;29.50;92.50;;;;;;5015666;28;20026;-88
2022/07/29 10:33:14;;;;;;;9.93;4.60;;;28.40;94.30;;;;;;5011554;28;20053;-88
2022/07/29 10:35:43;;;;;;;5.32;4.07;;;29.80;93.70;;;;;;4997873;28;20040;-89
2022/07/29 10:38:27;;;;;;;9.20;4.50;;;30.50;92.90;;;;;;5013814;28;20038;-89
2022/07/29 10:41:29;;;;;;;4.70;4.15;;;30.70;92.40;;;;;;5015424;28;20038;-89
2022/07/29 10:44:00;;;;;;;9.18;4.47;;;31.10;92.10;;;;;;4997662;28;20059;-90
2022/07/29 10:46:27;;;;;;;7.25;4.88;;;30.80;91.80;;;;;;4998198;28;20026;-89
2022/07/29 10:49:06;;;;;;;4.97;3.80;;;31.10;91.60;;;;;;5013987;28;20129;-89
2022/07/29 10:51:50;;;;;;;7.13;4.90;;;31.10;91.90;;;;;;4996534;28;20092;-89
2022/07/29 10:54:38;;;;;;;5.75;3.95;;;31.20;91.10;;;;;;5014905;28;20088;-88
2022/07/29 10:57:27;;;;;;;5.75;4.07;;;31.70;90.70;;;;;;4997477;28;20030;-89
2022/07/29 11:00:14;;;;;;;10.73;4.55;;;32.50;90.30;;;;;;5014175;28;20034;-89
2022/07/29 11:02:40;;;;;;;5.78;4.53;;;32.70;89.20;;;;;;5013731;28;20511;-88
2022/07/29 11:05:12;;;;;;;11.50;4.90;;;32.40;90.10;;;;;;5012839;28;20034;-89
2022/07/29 11:07:40;;;;;;;9.60;4.22;;;31.50;90.70;;;;;;5012462;28;20084;-89
2022/07/29 11:10:12;;;;;;;11.00;6.22;;;30.60;91.40;;;;;;5012461;28;20026;-88
2022/07/29 11:12:37;;;;;;;8.38;5.32;;;29.40;92.60;;;;;;5012176;28;20029;-89
2022/07/29 11:15:08;;;;;;;7.75;5.28;;;29.30;93.70;;;;;;5012445;28;20018;-88
2022/07/29 11:17:58;;;;;;;9.95;5.22;;;29.70;93.80;;;;;;4995051;28;20609;-88
2022/07/29 11:20:34;;;;;;;8.45;4.88;;;29.90;93.60;;;;;;5012633;28;20456;-89
2022/07/29 11:23:01;;;;;;;10.65;5.50;;;30.20;92.80;;;;;;4996058;28;20091;-88
2022/07/29 11:25:27;;;;;;;7.13;5.93;;;29.40;93.80;;;;;;4996053;28;20088;-88
2022/07/29 11:28:08;;;;;;;8.30;5.30;;;30.00;92.80;;;;;;5012267;28;20033;-88
2022/07/29 11:30:51;;;;;;;8.23;5.55;;;29.90;92.70;;;;;;5012351;28;20076;-88
2022/07/29 11:33:31;;;;;;;11.32;5.00;;;30.30;92.90;;;;;;5012044;28;20032;-88
2022/07/29 11:36:11;;;;;;;10.97;5.30;;;30.80;92.00;;;;;;4995398;28;20034;-87
2022/07/29 11:38:37;;;;;;;19.30;9.65;;;31.30;91.40;;;;;;5013513;28;20389;-88
2022/07/29 11:41:26;;;;;;;24.13;9.02;;;31.10;91.00;;;;;;4995867;28;20041;-87
2022/07/29 11:44:46;;;;;;;8.75;5.53;;;31.10;91.50;;;;;;5011739;28;20041;-88
2022/07/29 11:47:12;;;;;;;7.90;5.00;;;30.70;91.10;;;;;;4994838;28;20493;-90
2022/07/29 11:49:44;;;;;;;8.65;5.43;;;30.20;91.70;;;;;;5011540;28;20025;-88
2022/07/29 11:52:10;;;;;;;7.40;4.88;;;30.30;91.90;;;;;;5011719;28;20026;-89
2022/07/29 11:54:39;;;;;;;13.55;5.72;;;30.10;91.70;;;;;;5011611;28;20436;-89
2022/07/29 11:57:07;;;;;;;6.80;5.75;;;29.50;91.80;;;;;;4995626;28;20459;-89
2022/07/29 11:59:42;;;;;;;15.05;5.80;;;29.80;92.10;;;;;;5011596;28;20493;-89
2022/07/29 12:02:08;;;;;;;7.60;5.82;;;29.70;91.80;;;;;;5012164;28;20030;-87
2022/07/29 12:04:57;;;;;;;10.02;6.35;;;29.50;92.10;;;;;;4956742;28;1136351;-88
2022/07/29 12:07:33;;;;;;;10.02;5.88;;;28.70;92.90;;;;;;5014061;28;20034;-88
2022/07/29 12:09:59;;;;;;;6.28;5.35;;;28.60;93.60;;;;;;4995912;28;20038;-90
2022/07/29 12:12:26;;;;;;;14.48;5.63;;;29.20;92.50;;;;;;5012646;28;20037;-88
2022/07/29 12:14:52;;;;;;;9.95;5.82;;;29.00;92.10;;;;;;5012512;28;20037;-88
2022/07/29 12:17:30;;;;;;;12.95;6.88;;;28.20;92.70;;;;;;4995919;28;20030;-88
2022/07/29 12:19:58;;;;;;;8.25;5.50;;;27.90;93.10;;;;;;4996064;28;20084;-89
2022/07/29 12:22:27;;;;;;;8.48;5.97;;;28.20;93.20;;;;;;5012505;28;20149;-89
2022/07/29 12:24:54;;;;;;;10.15;5.40;;;28.30;93.10;;;;;;5011637;28;20042;-88
2022/07/29 12:27:20;;;;;;;7.45;6.28;;;28.00;93.50;;;;;;4995342;28;20041;-88
2022/07/29 12:29:59;;;;;;;6.45;5.55;;;27.60;93.60;;;;;;4996282;28;20474;-88
2022/07/29 12:32:34;;;;;;;8.25;6.43;;;28.00;93.60;;;;;;4995869;28;20034;-88
2022/07/29 12:35:07;;;;;;;7.47;6.15;;;27.90;92.60;;;;;;4995217;28;20482;-89
2022/07/29 12:37:35;;;;;;;10.02;6.85;;;27.60;93.40;;;;;;5011570;28;20761;-88
2022/07/29 12:40:03;;;;;;;10.07;6.32;;;27.40;93.60;;;;;;4995456;28;20041;-88
2022/07/29 12:42:28;;;;;;;9.13;5.32;;;27.30;93.40;;;;;;4995209;28;20470;-88
2022/07/29 12:44:54;;;;;;;9.75;5.95;;;27.40;94.20;;;;;;4994847;28;20132;-88
2022/07/29 12:47:20;;;;;;;7.75;5.50;;;28.40;93.80;;;;;;4994899;28;20034;-89
2022/07/29 12:49:46;;;;;;;7.82;5.55;;;29.50;92.40;;;;;;4995722;28;20030;-88
2022/07/29 12:52:29;;;;;;;6.80;5.07;;;30.60;91.20;;;;;;5011681;28;20034;-89
2022/07/29 12:54:55;;;;;;;6.15;4.63;;;31.10;90.40;;;;;;4995184;28;20040;-88
2022/07/29 12:57:21;;;;;;;7.82;6.32;;;30.90;90.00;;;;;;4995734;28;20030;-87
2022/07/29 13:00:00;;;;;;;7.47;5.88;;;30.30;89.20;;;;;;4995835;28;20034;-88
2022/07/29 13:02:26;;;;;;;8.65;6.28;;;29.90;90.30;;;;;;4994950;28;20069;-88
2022/07/29 13:04:57;;;;;;;8.20;5.22;;;30.10;90.80;;;;;;5009970;28;20080;-89
2022/07/29 13:07:29;;;;;;;8.15;5.40;;;30.20;90.00;;;;;;5012159;28;20034;-89
2022/07/29 13:10:16;;;;;;;12.32;5.50;;;30.30;89.90;;;;;;4995456;28;20716;-89
2022/07/29 13:13:09;;;;;;;9.90;5.95;;;30.40;86.80;;;;;;4995472;28;20096;-88
2022/07/29 13:16:06;;;;;;;7.43;5.95;;;29.70;90.30;;;;;;4996463;28;20091;-88
2022/07/29 13:18:38;;;;;;;9.52;6.43;;;29.00;91.10;;;;;;4999034;28;20041;-90